Time,TemperatureF,DewpointF,PressureIn,WindDirection,WindDirectionDegrees,WindSpeedMPH,WindSpeedGustMPH,Humidity,HourlyPrecipIn,Conditions,Clouds,dailyrainin,SoftwareType,DateUTC
2013-03-17 00:11:00,56.8,53.0,29.86,WNW,297,6.0,12.0,87,0.00,,,0.00,weatherlink.com 1.10,2013-03-17 04:11:00,
2013-03-17 00:26:00,57.6,53.0,29.86,West,273,7.0,12.0,85,0.00,,,0.00,weatherlink.com 1.10,2013-03-17 04:26:00,
2013-03-17 00:41:00,56.9,54.0,29.86,WNW,293,4.0,6.0,89,0.00,,,0.00,weatherlink.com 1.10,2013-03-17 04:41:00,
2013-03-17 00:56:00,56.8,54.0,29.86,West,260,6.0,8.0,90,0.00,,,0.00,weatherlink.com 1.10,2013-03-17 04:56:00,
2013-03-17 01:11:00,56.9,54.0,29.85,West,269,3.0,10.0,89,0.00,,,0.00,weatherlink.com 1.10,2013-03-17 05:11:00,
2013-03-17 01:26:00,56.8,54.0,29.86,West,281,8.0,10.0,89,0.00,,,0.00,weatherlink.com 1.10,2013-03-17 05:26:00,
2013-03-17 01:41:00,56.7,54.0,29.86,West,267,5.0,9.0,90,0.00,,,0.00,weatherlink.com 1.10,2013-03-17 05:41:00,
2013-03-17 01:56:00,56.6,54.0,29.86,West,271,3.0,8.0,90,0.00,,,0.00,weatherlink.com 1.10,2013-03-17 05:56:00,
2013-03-17 02:11:00,56.5,54.0,29.86,WSW,247,7.0,8.0,90,0.00,,,0.00,weatherlink.com 1.10,2013-03-17 06:11:00,
2013-03-17 02:41:00,56.4,54.0,29.87,WSW,249,5.0,9.0,91,0.00,,,0.00,weatherlink.com 1.10,2013-03-17 06:41:00,
2013-03-17 03:26:00,55.9,53.0,29.88,West,278,8.0,9.0,91,0.00,,,0.00,weatherlink.com 1.10,2013-03-17 07:26:00,
2013-03-17 03:41:00,55.9,53.0,29.88,WNW,288,6.0,11.0,91,0.00,,,0.00,weatherlink.com 1.10,2013-03-17 07:41:00,
2013-03-17 03:56:00,56.1,53.0,29.88,WNW,297,4.0,13.0,90,0.00,,,0.00,weatherlink.com 1.10,2013-03-17 07:56:00,
2013-03-17 04:11:00,55.4,53.0,29.88,WNW,295,4.0,6.0,91,0.00,,,0.00,weatherlink.com 1.10,2013-03-17 08:11:00,
2013-03-17 04:41:00,55.2,52.0,29.91,NNW,333,9.0,20.0,90,0.00,,,0.00,weatherlink.com 1.10,2013-03-17 08:41:00,
2013-03-17 04:56:00,54.2,51.0,29.92,NNE,30,8.0,20.0,88,0.00,,,0.00,weatherlink.com 1.10,2013-03-17 08:56:00,
2013-03-17 05:11:00,51.4,49.0,29.93,NE,45,16.0,23.0,91,0.00,,,0.00,weatherlink.com 1.10,2013-03-17 09:11:00,
2013-03-17 05:26:00,-999.0,-99.9,29.93,North,-999,-999.0,-999.0,-999,0.00,,,0.00,weatherlink.com 1.10,2013-03-17 09:26:00,
2013-03-17 05:41:00,-999.0,-99.9,29.94,North,-999,-999.0,-999.0,-999,0.00,,,0.00,weatherlink.com 1.10,2013-03-17 09:41:00,
2013-03-17 05:56:00,-999.0,-99.9,29.94,North,-999,-999.0,-999.0,-999,0.00,,,0.00,weatherlink.com 1.10,2013-03-17 09:56:00,
2013-03-17 06:11:00,-999.0,-99.9,29.95,North,-999,-999.0,-999.0,-999,0.00,,,0.00,weatherlink.com 1.10,2013-03-17 10:11:00,
2013-03-17 06:27:00,-999.0,-99.9,29.96,North,-999,-999.0,-999.0,-999,0.00,,,0.00,weatherlink.com 1.10,2013-03-17 10:27:00,
2013-03-17 06:42:00,-999.0,-99.9,29.96,North,-999,-999.0,-999.0,-999,0.00,,,0.00,weatherlink.com 1.10,2013-03-17 10:42:00,
2013-03-17 06:57:00,-999.0,-99.9,29.98,North,-999,-999.0,-999.0,-999,0.00,,,0.00,weatherlink.com 1.10,2013-03-17 10:57:00,
2013-03-17 07:12:00,-999.0,-99.9,29.98,North,-999,-999.0,-999.0,-999,0.00,,,0.00,weatherlink.com 1.10,2013-03-17 11:12:00,
2013-03-17 07:27:00,-999.0,-99.9,29.99,North,-999,-999.0,-999.0,-999,0.00,,,0.00,weatherlink.com 1.10,2013-03-17 11:27:00,
2013-03-17 07:42:00,49.8,48.0,30.00,ENE,62,6.0,13.0,93,0.00,,,0.00,weatherlink.com 1.10,2013-03-17 11:42:00,
2013-03-17 07:57:00,50.2,48.0,30.00,ENE,75,5.0,18.0,93,0.00,,,0.00,weatherlink.com 1.10,2013-03-17 11:57:00,
2013-03-17 08:12:00,50.7,49.0,30.00,NE,50,6.0,15.0,93,0.00,,,0.00,weatherlink.com 1.10,2013-03-17 12:12:00,
2013-03-17 08:27:00,51.4,50.0,30.01,NE,51,9.0,14.0,93,0.00,,,0.00,weatherlink.com 1.10,2013-03-17 12:27:00,
2013-03-17 08:42:00,52.4,50.0,30.01,East,81,8.0,14.0,92,0.00,,,0.00,weatherlink.com 1.10,2013-03-17 12:42:00,
2013-03-17 09:27:00,54.6,51.0,30.03,NNE,30,8.0,12.0,88,0.00,,,0.00,weatherlink.com 1.10,2013-03-17 13:27:00,
2013-03-17 09:42:00,55.0,52.0,30.03,NE,46,6.0,11.0,88,0.00,,,0.00,weatherlink.com 1.10,2013-03-17 13:42:00,
2013-03-17 09:57:00,54.8,51.0,30.02,East,79,5.0,12.0,88,0.00,,,0.00,weatherlink.com 1.10,2013-03-17 13:57:00,
2013-03-17 10:12:00,54.5,51.0,30.02,NE,51,6.0,16.0,89,0.00,,,0.00,weatherlink.com 1.10,2013-03-17 14:12:00,
2013-03-17 10:27:00,53.7,51.0,30.03,NE,43,15.0,15.0,90,0.00,,,0.00,weatherlink.com 1.10,2013-03-17 14:27:00,
2013-03-17 10:42:00,52.6,50.0,30.04,NE,43,14.0,16.0,91,0.00,,,0.00,weatherlink.com 1.10,2013-03-17 14:42:00,
2013-03-17 10:57:00,52.6,50.0,30.04,NE,47,19.0,19.0,91,0.00,,,0.00,weatherlink.com 1.10,2013-03-17 14:57:00,
2013-03-17 11:12:00,52.2,49.0,30.05,East,80,11.0,19.0,90,0.00,,,0.00,weatherlink.com 1.10,2013-03-17 15:12:00,
2013-03-17 11:27:00,51.8,49.0,30.05,NE,47,18.0,21.0,91,0.00,,,0.00,weatherlink.com 1.10,2013-03-17 15:27:00,
2013-03-17 11:42:00,52.3,50.0,30.05,NE,46,13.0,21.0,91,0.00,,,0.00,weatherlink.com 1.10,2013-03-17 15:42:00,
2013-03-17 11:57:00,52.3,50.0,30.06,NE,39,19.0,20.0,90,0.00,,,0.00,weatherlink.com 1.10,2013-03-17 15:57:00,
2013-03-17 12:12:00,51.8,49.0,30.06,NE,44,16.0,21.0,90,0.00,,,0.00,weatherlink.com 1.10,2013-03-17 16:12:00,
2013-03-17 12:27:00,51.4,49.0,30.06,NE,56,21.0,23.0,90,0.00,,,0.00,weatherlink.com 1.10,2013-03-17 16:27:00,
2013-03-17 12:42:00,51.3,49.0,30.07,NE,44,14.0,24.0,90,0.00,,,0.00,weatherlink.com 1.10,2013-03-17 16:42:00,
2013-03-17 12:57:00,51.4,48.0,30.07,NE,50,10.0,25.0,89,0.00,,,0.00,weatherlink.com 1.10,2013-03-17 16:57:00,
2013-03-17 13:12:00,51.0,48.0,30.07,NE,40,13.0,25.0,89,0.00,,,0.00,weatherlink.com 1.10,2013-03-17 17:12:00,
2013-03-17 13:29:00,50.8,48.0,30.06,NNE,25,13.0,27.0,89,0.00,,,0.00,weatherlink.com 1.10,2013-03-17 17:29:00,
2013-03-17 13:42:00,50.7,48.0,30.06,NNE,19,21.0,28.0,89,0.00,,,0.00,weatherlink.com 1.10,2013-03-17 17:42:00,
2013-03-17 13:58:00,50.0,47.0,30.06,NE,41,15.0,30.0,90,0.00,,,0.00,weatherlink.com 1.10,2013-03-17 17:58:00,
2013-03-17 14:13:00,49.5,47.0,30.06,NNE,27,15.0,28.0,90,0.00,,,0.00,weatherlink.com 1.10,2013-03-17 18:13:00,
2013-03-17 14:28:00,49.0,46.0,30.06,NE,37,18.0,28.0,90,0.00,,,0.00,weatherlink.com 1.10,2013-03-17 18:28:00,
2013-03-17 14:43:00,48.8,46.0,30.05,NE,44,15.0,29.0,90,0.00,,,0.00,weatherlink.com 1.10,2013-03-17 18:43:00,
2013-03-17 14:58:00,48.5,46.0,30.05,ENE,63,14.0,26.0,90,0.00,,,0.00,weatherlink.com 1.10,2013-03-17 18:58:00,
2013-03-17 15:13:00,47.8,45.0,30.05,NE,56,24.0,32.0,90,0.00,,,0.00,weatherlink.com 1.10,2013-03-17 19:13:00,
2013-03-17 15:28:00,47.7,45.0,30.05,ENE,78,20.0,28.0,90,0.00,,,0.00,weatherlink.com 1.10,2013-03-17 19:28:00,
2013-03-17 15:43:00,47.5,45.0,30.06,North,353,12.0,23.0,90,0.00,,,0.00,weatherlink.com 1.10,2013-03-17 19:43:00,
2013-03-17 15:58:00,47.6,45.0,30.06,ENE,72,20.0,27.0,90,0.00,,,0.00,weatherlink.com 1.10,2013-03-17 19:58:00,
2013-03-17 16:13:00,47.4,45.0,30.06,NE,46,15.0,27.0,90,0.00,,,0.00,weatherlink.com 1.10,2013-03-17 20:13:00,
2013-03-17 16:28:00,47.2,45.0,30.06,NE,46,14.0,28.0,90,0.00,,,0.00,weatherlink.com 1.10,2013-03-17 20:28:00,
2013-03-17 16:43:00,47.0,44.0,30.06,NNE,16,14.0,26.0,90,0.00,,,0.00,weatherlink.com 1.10,2013-03-17 20:43:00,
2013-03-17 16:58:00,46.8,44.0,30.07,ENE,64,20.0,30.0,90,0.00,,,0.00,weatherlink.com 1.10,2013-03-17 20:58:00,
2013-03-17 17:13:00,46.7,44.0,30.06,NE,40,16.0,27.0,90,0.00,,,0.00,weatherlink.com 1.10,2013-03-17 21:13:00,
2013-03-17 17:29:00,46.7,44.0,30.07,NNE,30,9.0,26.0,90,0.00,,,0.00,weatherlink.com 1.10,2013-03-17 21:29:00,
2013-03-17 17:43:00,47.1,45.0,30.07,SE,134,8.0,22.0,91,0.00,,,0.00,weatherlink.com 1.10,2013-03-17 21:43:00,
2013-03-17 17:58:00,47.1,45.0,30.08,ENE,71,7.0,22.0,91,0.00,,,0.00,weatherlink.com 1.10,2013-03-17 21:58:00,
2013-03-17 18:13:00,46.9,45.0,30.09,East,79,8.0,27.0,91,0.00,,,0.00,weatherlink.com 1.10,2013-03-17 22:13:00,
2013-03-17 18:28:00,46.9,45.0,30.09,NE,56,9.0,24.0,91,0.00,,,0.00,weatherlink.com 1.10,2013-03-17 22:28:00,
2013-03-17 18:43:00,47.0,45.0,30.10,NE,34,9.0,24.0,91,0.00,,,0.00,weatherlink.com 1.10,2013-03-17 22:43:00,
2013-03-17 18:58:00,47.2,45.0,30.12,NNE,27,22.0,25.0,91,0.00,,,0.00,weatherlink.com 1.10,2013-03-17 22:58:00,
2013-03-17 19:13:00,47.2,45.0,30.12,North,1,13.0,26.0,91,0.00,,,0.00,weatherlink.com 1.10,2013-03-17 23:13:00,
2013-03-17 19:28:00,47.3,45.0,30.13,NNE,20,10.0,29.0,90,0.00,,,0.00,weatherlink.com 1.10,2013-03-17 23:28:00,
2013-03-17 19:43:00,47.3,45.0,30.13,ENE,59,15.0,24.0,90,0.00,,,0.00,weatherlink.com 1.10,2013-03-17 23:43:00,
2013-03-17 19:58:00,47.4,45.0,30.14,ENE,71,18.0,26.0,90,0.00,,,0.00,weatherlink.com 1.10,2013-03-17 23:58:00,
2013-03-17 20:13:00,47.6,45.0,30.15,NE,43,16.0,28.0,89,0.00,,,0.00,weatherlink.com 1.10,2013-03-18 00:13:00,
2013-03-17 20:29:00,47.7,45.0,30.16,NNE,27,13.0,25.0,89,0.00,,,0.00,weatherlink.com 1.10,2013-03-18 00:29:00,
2013-03-17 20:44:00,47.7,45.0,30.15,NE,51,14.0,26.0,89,0.00,,,0.00,weatherlink.com 1.10,2013-03-18 00:44:00,
2013-03-17 20:59:00,47.9,45.0,30.15,NE,39,17.0,30.0,89,0.00,,,0.00,weatherlink.com 1.10,2013-03-18 00:59:00,
2013-03-17 21:14:00,47.9,45.0,30.16,NE,39,21.0,26.0,89,0.00,,,0.00,weatherlink.com 1.10,2013-03-18 01:14:00,
2013-03-17 21:29:00,47.9,45.0,30.16,NE,43,24.0,27.0,89,0.00,,,0.00,weatherlink.com 1.10,2013-03-18 01:29:00,
2013-03-17 21:44:00,47.7,45.0,30.16,NE,47,18.0,24.0,90,0.00,,,0.00,weatherlink.com 1.10,2013-03-18 01:44:00,
2013-03-17 21:59:00,47.7,45.0,30.16,NNE,25,17.0,25.0,91,0.00,,,0.00,weatherlink.com 1.10,2013-03-18 01:59:00,
2013-03-17 22:14:00,47.9,46.0,30.17,NNE,19,9.0,25.0,91,0.00,,,0.00,weatherlink.com 1.10,2013-03-18 02:14:00,
2013-03-17 22:29:00,47.8,45.0,30.17,NE,53,14.0,26.0,91,0.00,,,0.00,weatherlink.com 1.10,2013-03-18 02:29:00,
2013-03-17 22:44:00,47.9,46.0,30.18,ESE,119,7.0,25.0,91,0.00,,,0.00,weatherlink.com 1.10,2013-03-18 02:44:00,
2013-03-17 22:59:00,48.0,46.0,30.18,NE,46,10.0,23.0,92,0.00,,,0.00,weatherlink.com 1.10,2013-03-18 02:59:00,
2013-03-17 23:14:00,47.9,46.0,30.18,NE,36,12.0,22.0,92,0.00,,,0.00,weatherlink.com 1.10,2013-03-18 03:14:00,
2013-03-17 23:29:00,48.1,46.0,30.19,East,95,8.0,23.0,92,0.00,,,0.00,weatherlink.com 1.10,2013-03-18 03:29:00,
2013-03-17 23:44:00,48.1,46.0,30.18,NE,48,9.0,20.0,92,0.00,,,0.00,weatherlink.com 1.10,2013-03-18 03:44:00,
2013-03-17 23:59:00,48.2,46.0,30.18,ENE,64,17.0,21.0,92,0.00,,,0.00,weatherlink.com 1.10,2013-03-18 03:59:00,